createdAt,value
2019-02-25T00:00:16.293Z,27.00
2019-02-25T00:01:00.736Z,27.00
2019-02-25T00:01:41.477Z,27.00
2019-02-25T00:02:31.449Z,27.00
2019-02-25T00:03:10.126Z,27.00
2019-02-25T00:03:49.104Z,27.00
2019-02-25T00:04:28.394Z,27.00
2019-02-25T00:05:07.672Z,27.00
2019-02-25T00:05:46.613Z,27.00
2019-02-25T00:06:25.968Z,27.00
2019-02-25T00:07:05.295Z,27.00
2019-02-25T00:07:44.621Z,27.10
2019-02-25T00:08:23.957Z,27.10
2019-02-25T00:09:02.647Z,27.00
2019-02-25T00:09:41.300Z,27.00
2019-02-25T00:10:20.060Z,27.10
2019-02-25T00:10:59.093Z,27.00
2019-02-25T00:11:38.374Z,27.00
2019-02-25T00:12:17.625Z,27.00
2019-02-25T00:12:56.878Z,27.00
2019-02-25T00:13:36.366Z,27.10
2019-02-25T00:14:15.143Z,27.10
2019-02-25T00:14:53.764Z,27.10
2019-02-25T00:15:33.100Z,27.10
2019-02-25T00:16:11.747Z,27.10
2019-02-25T00:16:50.350Z,27.10
2019-02-25T00:17:29.032Z,27.00
2019-02-25T00:18:07.743Z,27.00
2019-02-25T00:18:46.420Z,26.90
2019-02-25T00:19:25.851Z,26.90
2019-02-25T00:20:04.572Z,26.80
2019-02-25T00:20:43.302Z,26.70
2019-02-25T00:21:21.972Z,26.70
2019-02-25T00:22:00.904Z,26.70
2019-02-25T00:22:40.054Z,26.70
2019-02-25T00:23:19.185Z,26.70
2019-02-25T00:23:58.645Z,26.70
2019-02-25T00:24:37.351Z,26.70
2019-02-25T00:25:16.357Z,26.70
2019-02-25T00:25:55.127Z,26.80
2019-02-25T00:26:34.273Z,26.80
2019-02-25T00:27:12.894Z,26.80
2019-02-25T00:27:51.580Z,26.80
2019-02-25T00:28:30.208Z,26.80
2019-02-25T00:29:09.495Z,26.80
2019-02-25T00:29:49.036Z,26.80
2019-02-25T00:30:28.240Z,26.80
2019-02-25T00:31:07.607Z,26.80
2019-02-25T00:31:46.950Z,26.80
2019-02-25T00:32:25.543Z,26.80
2019-02-25T00:33:04.248Z,26.80
2019-02-25T00:33:42.961Z,26.80
2019-02-25T00:34:21.836Z,26.90
2019-02-25T00:35:00.868Z,26.90
2019-02-25T00:35:40.251Z,26.90
2019-02-25T00:36:19.703Z,26.90
2019-02-25T00:36:58.755Z,26.90
2019-02-25T00:37:38.155Z,26.90
2019-02-25T00:38:17.444Z,26.90
2019-02-25T00:38:57.359Z,26.90
2019-02-25T00:39:36.863Z,26.90
2019-02-25T00:40:15.509Z,26.90
2019-02-25T00:40:55.438Z,27.00
2019-02-25T00:41:34.119Z,27.00
2019-02-25T00:42:13.431Z,27.00
2019-02-25T00:42:52.200Z,27.00
2019-02-25T00:43:31.550Z,27.00
2019-02-25T00:44:10.692Z,27.00
2019-02-25T00:44:49.971Z,27.00
2019-02-25T00:45:29.193Z,27.00
2019-02-25T00:46:08.455Z,26.90
2019-02-25T00:46:47.979Z,26.80
2019-02-25T00:47:26.871Z,26.80
2019-02-25T00:48:05.542Z,26.70
2019-02-25T00:48:44.473Z,26.70
2019-02-25T00:49:23.145Z,26.60
2019-02-25T00:50:01.783Z,26.60
2019-02-25T00:50:40.477Z,26.50
2019-02-25T00:51:19.112Z,26.50
2019-02-25T00:51:58.643Z,26.50
2019-02-25T00:52:37.889Z,26.50
2019-02-25T00:53:17.386Z,26.50
2019-02-25T00:53:56.011Z,26.50
2019-02-25T00:54:35.526Z,26.50
2019-02-25T00:55:14.425Z,26.50
2019-02-25T00:55:53.352Z,26.60
2019-02-25T00:56:32.546Z,26.60
2019-02-25T00:57:12.510Z,26.60
2019-02-25T00:57:51.232Z,26.60
2019-02-25T00:58:29.917Z,26.60
2019-02-25T00:59:08.650Z,26.60
2019-02-25T00:59:47.398Z,26.60
2019-02-25T01:00:25.994Z,26.70
2019-02-25T01:01:04.679Z,26.70
2019-02-25T01:01:43.382Z,26.70
2019-02-25T01:02:22.562Z,26.70
2019-02-25T01:03:01.944Z,26.70
2019-02-25T01:03:41.047Z,26.70
2019-02-25T01:04:20.224Z,26.80
2019-02-25T01:04:58.899Z,26.80
2019-02-25T01:05:37.577Z,26.80
2019-02-25T01:06:16.172Z,26.80
2019-02-25T01:06:55.025Z,26.80
2019-02-25T01:07:33.859Z,26.80
2019-02-25T01:08:13.041Z,26.70
2019-02-25T01:08:52.225Z,26.70
2019-02-25T01:09:31.288Z,26.60
2019-02-25T01:10:11.561Z,26.60
2019-02-25T01:10:50.325Z,26.50
2019-02-25T01:11:29.819Z,26.50
2019-02-25T01:12:09.335Z,26.40
2019-02-25T01:12:48.943Z,26.40
2019-02-25T01:13:27.681Z,26.40
2019-02-25T01:14:06.289Z,26.40
2019-02-25T01:14:45.137Z,26.40
2019-02-25T01:15:24.176Z,26.40
2019-02-25T01:16:03.129Z,26.40
2019-02-25T01:16:42.625Z,26.40
2019-02-25T01:17:21.930Z,26.50
2019-02-25T01:18:00.547Z,26.50
2019-02-25T01:18:39.826Z,26.50
2019-02-25T01:19:19.120Z,26.60
2019-02-25T01:19:57.711Z,26.60
2019-02-25T01:20:36.450Z,26.60
2019-02-25T01:21:15.305Z,26.60
2019-02-25T01:21:54.600Z,26.60
2019-02-25T01:22:33.207Z,26.60
2019-02-25T01:23:11.822Z,26.60
2019-02-25T01:23:51.280Z,26.60
2019-02-25T01:24:29.956Z,26.60
2019-02-25T01:25:10.363Z,26.70
2019-02-25T01:25:49.842Z,26.70
2019-02-25T01:26:29.033Z,26.70
2019-02-25T01:27:07.617Z,26.60
2019-02-25T01:27:46.738Z,26.60
2019-02-25T01:28:26.016Z,26.60
2019-02-25T01:29:04.759Z,26.50
2019-02-25T01:29:44.619Z,26.50
2019-02-25T01:30:23.194Z,26.40
2019-02-25T01:31:01.876Z,26.40
2019-02-25T01:31:40.497Z,26.40
2019-02-25T01:32:19.526Z,26.30
2019-02-25T01:32:58.190Z,26.30
2019-02-25T01:33:37.153Z,26.30
2019-02-25T01:34:15.723Z,26.30
2019-02-25T01:34:55.239Z,26.40
2019-02-25T01:35:34.464Z,26.40
2019-02-25T01:36:13.664Z,26.50
2019-02-25T01:36:53.007Z,26.40
2019-02-25T01:37:31.693Z,26.50
2019-02-25T01:38:10.379Z,26.50
2019-02-25T01:38:49.389Z,26.50
2019-02-25T01:40:14.769Z,26.50
2019-02-25T01:40:54.130Z,26.50
2019-02-25T01:41:33.431Z,26.50
2019-02-25T01:42:13.368Z,26.60
2019-02-25T01:42:52.565Z,26.60
2019-02-25T01:43:31.253Z,26.60
2019-02-25T01:44:10.580Z,26.60
2019-02-25T01:44:49.319Z,26.60
2019-02-25T01:45:28.076Z,26.60
2019-02-25T01:46:07.349Z,26.50
2019-02-25T01:46:45.936Z,26.50
2019-02-25T01:47:24.499Z,26.40
2019-02-25T01:48:03.172Z,26.40
2019-02-25T01:48:41.866Z,26.40
2019-02-25T01:49:20.521Z,26.30
2019-02-25T01:49:59.269Z,26.30
2019-02-25T01:50:38.075Z,26.30
2019-02-25T01:51:17.021Z,26.30
2019-02-25T01:51:56.528Z,26.30
2019-02-25T01:52:35.714Z,26.40
2019-02-25T01:53:15.557Z,26.30
2019-02-25T01:53:54.552Z,26.40
2019-02-25T01:54:33.265Z,26.40
2019-02-25T01:55:12.367Z,26.40
2019-02-25T01:55:51.028Z,26.40
2019-02-25T01:56:29.673Z,26.50
2019-02-25T01:57:09.107Z,26.50
2019-02-25T01:57:48.085Z,26.50
2019-02-25T01:58:26.673Z,26.50
2019-02-25T01:59:05.428Z,26.40
2019-02-25T01:59:44.055Z,26.40
2019-02-25T02:00:22.742Z,26.30
2019-02-25T02:01:01.474Z,25.90
2019-02-25T02:01:40.146Z,26.30
2019-02-25T02:02:18.759Z,26.30
2019-02-25T02:02:57.537Z,26.20
2019-02-25T02:03:36.254Z,26.20
2019-02-25T02:04:14.938Z,26.30
2019-02-25T02:04:53.646Z,26.30
2019-02-25T02:05:32.350Z,26.30
2019-02-25T02:06:10.991Z,26.40
2019-02-25T02:06:49.678Z,26.40
2019-02-25T02:07:28.346Z,26.40
2019-02-25T02:08:07.078Z,26.40
2019-02-25T02:08:46.271Z,26.50
2019-02-25T02:09:24.967Z,26.40
2019-02-25T02:10:03.659Z,26.40
2019-02-25T02:10:42.395Z,26.40
2019-02-25T02:11:21.049Z,26.50
2019-02-25T02:11:59.954Z,26.50
2019-02-25T02:12:38.643Z,26.50
2019-02-25T02:13:17.919Z,26.50
2019-02-25T02:13:57.384Z,26.50
2019-02-25T02:14:36.429Z,26.50
2019-02-25T02:15:17.324Z,26.40
2019-02-25T02:15:56.559Z,26.40
2019-02-25T02:16:35.865Z,26.30
2019-02-25T02:17:15.220Z,26.30
2019-02-25T02:17:53.861Z,26.30
2019-02-25T02:18:32.575Z,26.20
2019-02-25T02:19:11.238Z,26.30
2019-02-25T02:19:50.037Z,26.30
2019-02-25T02:20:29.232Z,26.20
2019-02-25T02:21:08.463Z,26.30
2019-02-25T02:21:47.774Z,26.30
2019-02-25T02:22:26.992Z,26.30
2019-02-25T02:23:05.658Z,26.40
2019-02-25T02:23:45.045Z,26.40
2019-02-25T02:24:23.853Z,26.40
2019-02-25T02:25:03.557Z,26.40
2019-02-25T02:25:42.798Z,26.40
2019-02-25T02:26:21.516Z,26.40
2019-02-25T02:27:00.299Z,26.40
2019-02-25T02:27:39.406Z,26.40
2019-02-25T02:28:18.719Z,26.30
2019-02-25T02:28:58.065Z,26.30
2019-02-25T02:29:37.306Z,26.20
2019-02-25T02:30:20.567Z,26.20
2019-02-25T02:31:00.012Z,26.20
2019-02-25T02:31:39.415Z,26.20
2019-02-25T02:32:18.789Z,26.20
2019-02-25T02:32:57.483Z,26.20
2019-02-25T02:33:36.860Z,26.20
2019-02-25T02:34:16.352Z,26.20
2019-02-25T02:34:55.605Z,26.30
2019-02-25T02:35:34.251Z,26.30
2019-02-25T02:36:12.931Z,26.40
2019-02-25T02:36:51.657Z,26.40
2019-02-25T02:37:31.538Z,26.40
2019-02-25T02:38:10.507Z,26.40
2019-02-25T02:38:49.843Z,26.40
2019-02-25T02:39:29.019Z,26.40
2019-02-25T02:40:09.230Z,26.40
2019-02-25T02:40:48.538Z,26.30
2019-02-25T02:41:27.551Z,26.30
2019-02-25T02:42:26.291Z,26.20
2019-02-25T02:43:04.893Z,26.20
2019-02-25T02:43:43.617Z,26.20
2019-02-25T02:44:22.578Z,26.20
2019-02-25T02:45:03.539Z,26.20
2019-02-25T02:46:02.007Z,26.30
2019-02-25T02:47:17.428Z,26.30
2019-02-25T02:48:10.868Z,26.40
2019-02-25T02:48:53.263Z,26.40
2019-02-25T02:49:32.219Z,26.40
2019-02-25T02:50:13.557Z,26.50
2019-02-25T02:50:52.620Z,26.40
2019-02-25T02:51:31.861Z,26.40
2019-02-25T02:52:10.710Z,26.50
2019-02-25T02:52:49.868Z,26.50
2019-02-25T02:53:29.382Z,26.60
2019-02-25T02:54:08.569Z,26.50
2019-02-25T02:54:47.834Z,26.50
2019-02-25T02:55:26.496Z,26.50
2019-02-25T02:56:05.208Z,26.50
2019-02-25T02:56:43.934Z,26.40
2019-02-25T02:57:22.794Z,26.40
2019-02-25T02:58:01.961Z,26.40
2019-02-25T02:58:41.126Z,26.40
2019-02-25T02:59:20.412Z,26.30
2019-02-25T02:59:59.437Z,26.30
2019-02-25T03:00:38.614Z,26.20
2019-02-25T03:01:18.013Z,26.20
2019-02-25T03:01:56.609Z,26.20
2019-02-25T03:02:35.313Z,26.30
2019-02-25T03:03:13.998Z,26.30
2019-02-25T03:03:52.607Z,26.30
2019-02-25T03:04:31.376Z,26.40
2019-02-25T03:05:11.323Z,26.40
2019-02-25T03:05:50.557Z,26.40
2019-02-25T03:06:29.663Z,26.40
2019-02-25T03:07:09.107Z,26.40
2019-02-25T03:07:48.453Z,26.40
2019-02-25T03:08:27.844Z,26.30
2019-02-25T03:09:07.750Z,26.30
2019-02-25T03:09:46.456Z,26.30
2019-02-25T03:10:25.102Z,26.20
2019-02-25T03:11:03.852Z,26.20
2019-02-25T03:11:43.266Z,26.20
2019-02-25T03:12:21.948Z,26.30
2019-02-25T03:13:00.720Z,26.30
2019-02-25T03:13:39.357Z,26.30
2019-02-25T03:14:18.152Z,26.40
2019-02-25T03:14:56.795Z,26.40
2019-02-25T03:15:35.677Z,26.40
2019-02-25T03:16:14.763Z,26.40
2019-02-25T03:16:53.756Z,26.40
2019-02-25T03:17:32.841Z,26.40
2019-02-25T03:18:12.173Z,26.40
2019-02-25T03:18:51.331Z,26.40
2019-02-25T03:19:30.153Z,26.40
2019-02-25T03:20:09.135Z,26.40
2019-02-25T03:20:47.890Z,26.30
2019-02-25T03:21:26.554Z,26.30
2019-02-25T03:22:05.438Z,26.20
2019-02-25T03:22:44.655Z,26.20
2019-02-25T03:23:23.234Z,26.20
2019-02-25T03:24:02.733Z,26.30
2019-02-25T03:24:42.216Z,26.30
2019-02-25T03:25:21.701Z,26.30
2019-02-25T03:26:01.135Z,26.40
2019-02-25T03:26:40.369Z,26.40
2019-02-25T03:27:19.738Z,26.40
2019-02-25T03:27:58.411Z,26.40
2019-02-25T03:28:37.097Z,26.40
2019-02-25T03:29:16.325Z,26.50
2019-02-25T03:29:55.236Z,26.50
2019-02-25T03:30:34.345Z,26.50
2019-02-25T03:31:13.413Z,26.50
2019-02-25T03:31:52.097Z,26.40
2019-02-25T03:32:31.458Z,26.40
2019-02-25T03:33:10.729Z,26.30
2019-02-25T03:33:49.345Z,26.30
2019-02-25T03:34:28.525Z,26.30
2019-02-25T03:35:08.037Z,26.30
2019-02-25T03:35:46.686Z,26.30
2019-02-25T03:36:25.567Z,26.30
2019-02-25T03:37:04.285Z,26.30
2019-02-25T03:37:43.530Z,26.40
2019-02-25T03:38:22.599Z,26.40
2019-02-25T03:39:01.973Z,26.50
2019-02-25T03:39:41.367Z,26.50
2019-02-25T03:40:23.750Z,26.50
2019-02-25T03:41:02.659Z,26.50
2019-02-25T03:41:41.971Z,26.50
2019-02-25T03:42:20.627Z,26.50
2019-02-25T03:42:59.211Z,26.50
2019-02-25T03:43:37.893Z,26.40
2019-02-25T03:44:16.483Z,26.40
2019-02-25T03:44:55.189Z,26.40
2019-02-25T03:45:33.927Z,26.40
2019-02-25T03:46:13.372Z,26.40
2019-02-25T03:46:52.582Z,26.40
2019-02-25T03:47:31.437Z,26.40
2019-02-25T03:48:10.563Z,26.50
2019-02-25T03:48:49.220Z,26.50
2019-02-25T03:49:27.873Z,26.50
2019-02-25T03:50:06.711Z,26.60
2019-02-25T03:50:46.043Z,26.60
2019-02-25T03:51:25.561Z,26.60
2019-02-25T03:52:04.136Z,26.60
2019-02-25T03:52:42.792Z,26.60
2019-02-25T03:53:21.503Z,26.50
2019-02-25T03:54:00.177Z,26.50
2019-02-25T03:54:38.924Z,26.50
2019-02-25T03:55:19.181Z,26.40
2019-02-25T03:55:58.319Z,26.40
2019-02-25T03:56:37.535Z,26.40
2019-02-25T03:57:17.000Z,26.40
2019-02-25T03:57:56.301Z,26.30
2019-02-25T03:58:35.558Z,26.30
2019-02-25T03:59:14.829Z,26.30
2019-02-25T03:59:53.984Z,26.30
2019-02-25T04:00:32.674Z,26.40
2019-02-25T04:01:11.295Z,26.40
2019-02-25T04:01:49.994Z,26.40
2019-02-25T04:02:28.892Z,26.50
2019-02-25T04:03:07.542Z,26.50
2019-02-25T04:03:47.142Z,26.60
2019-02-25T04:04:26.363Z,26.60
2019-02-25T04:05:05.637Z,26.60
2019-02-25T04:05:45.082Z,26.60
2019-02-25T04:06:24.414Z,26.60
2019-02-25T04:07:03.612Z,26.60
2019-02-25T04:07:42.918Z,26.60
2019-02-25T04:08:21.536Z,26.60
2019-02-25T04:09:00.163Z,26.50
2019-02-25T04:09:38.937Z,26.50
2019-02-25T04:10:18.238Z,26.40
2019-02-25T04:10:57.369Z,26.40
2019-02-25T04:11:36.941Z,26.40
2019-02-25T04:12:16.160Z,26.30
2019-02-25T04:12:55.651Z,26.30
2019-02-25T04:13:34.291Z,26.30
2019-02-25T04:14:13.177Z,26.30
2019-02-25T04:14:51.754Z,26.40
2019-02-25T04:15:35.291Z,26.40
2019-02-25T04:16:14.233Z,26.30
2019-02-25T04:16:52.904Z,26.40
2019-02-25T04:17:31.486Z,26.40
2019-02-25T04:18:10.129Z,26.40
2019-02-25T04:18:49.141Z,26.40
2019-02-25T04:19:28.418Z,26.40
2019-02-25T04:20:07.985Z,26.40
2019-02-25T04:20:47.039Z,26.40
2019-02-25T04:21:26.507Z,26.40
2019-02-25T04:22:05.663Z,26.40
2019-02-25T04:22:44.877Z,26.40
2019-02-25T04:23:24.294Z,26.40
2019-02-25T04:24:03.673Z,26.40
2019-02-25T04:24:42.252Z,26.40
2019-02-25T04:25:21.207Z,26.40
2019-02-25T04:25:59.860Z,26.40
2019-02-25T04:26:38.544Z,26.40
2019-02-25T04:27:17.706Z,26.40
2019-02-25T04:28:14.826Z,26.40
2019-02-25T04:28:53.512Z,26.40
2019-02-25T04:29:32.220Z,26.40
2019-02-25T04:30:12.253Z,26.40
2019-02-25T04:30:51.069Z,26.40
2019-02-25T04:31:30.198Z,26.40
2019-02-25T04:32:09.555Z,26.40
2019-02-25T04:32:48.907Z,26.40
2019-02-25T04:33:27.964Z,26.40
2019-02-25T04:34:07.570Z,26.40
2019-02-25T04:34:47.624Z,26.40
2019-02-25T04:35:26.939Z,26.40
2019-02-25T04:36:06.236Z,26.40
2019-02-25T04:36:44.899Z,26.40
2019-02-25T04:37:23.743Z,26.40
2019-02-25T04:38:03.116Z,26.40
2019-02-25T04:38:42.072Z,26.40
2019-02-25T04:39:20.768Z,26.40
2019-02-25T04:40:00.101Z,26.40
2019-02-25T04:40:38.816Z,26.40
2019-02-25T04:41:18.387Z,26.40
2019-02-25T04:41:57.547Z,26.50
2019-02-25T04:42:36.265Z,26.40
2019-02-25T04:43:15.692Z,26.40
2019-02-25T04:43:54.257Z,26.50
2019-02-25T04:44:33.630Z,26.50
2019-02-25T04:45:18.387Z,26.40
2019-02-25T04:45:57.803Z,26.40
2019-02-25T04:46:37.545Z,26.50
2019-02-25T04:47:16.213Z,26.50
2019-02-25T04:47:55.319Z,26.50
2019-02-25T04:48:34.016Z,26.50
2019-02-25T04:49:12.629Z,26.50
2019-02-25T04:49:51.677Z,26.40
2019-02-25T04:50:30.996Z,26.40
2019-02-25T04:51:10.491Z,26.40
2019-02-25T04:51:49.887Z,26.40
2019-02-25T04:52:29.245Z,26.40
2019-02-25T04:53:07.939Z,26.40
2019-02-25T04:53:46.566Z,26.50
2019-02-25T04:54:25.323Z,26.40
2019-02-25T04:55:04.037Z,26.40
2019-02-25T04:55:42.940Z,26.50
2019-02-25T04:56:21.639Z,26.40
2019-02-25T04:57:01.059Z,26.40
2019-02-25T04:57:40.054Z,26.50
2019-02-25T04:58:19.559Z,26.40
2019-02-25T04:58:58.230Z,26.50
2019-02-25T04:59:37.697Z,26.40
2019-02-25T05:00:18.678Z,26.40
2019-02-25T05:00:58.063Z,26.40
2019-02-25T05:01:37.198Z,26.40
2019-02-25T05:02:15.824Z,26.40
2019-02-25T05:02:55.078Z,26.40
2019-02-25T05:03:33.740Z,26.50
2019-02-25T05:04:12.482Z,26.50
2019-02-25T05:04:51.114Z,26.50
2019-02-25T05:05:30.352Z,26.50
2019-02-25T05:06:09.752Z,26.50
2019-02-25T05:06:49.020Z,26.50
2019-02-25T05:07:27.760Z,26.50
2019-02-25T05:08:06.471Z,26.50
2019-02-25T05:09:03.812Z,26.50
2019-02-25T05:09:42.577Z,26.50
2019-02-25T05:10:22.188Z,26.50
2019-02-25T05:11:00.833Z,26.50
2019-02-25T05:11:40.047Z,26.50
2019-02-25T05:12:19.360Z,26.50
2019-02-25T05:13:03.310Z,26.50
2019-02-25T05:13:42.266Z,26.50
2019-02-25T05:14:21.558Z,26.50
2019-02-25T05:15:01.033Z,26.50
2019-02-25T05:15:40.346Z,26.50
2019-02-25T05:16:19.122Z,26.50
2019-02-25T05:16:57.833Z,26.50
2019-02-25T05:17:36.455Z,26.50
2019-02-25T05:18:15.222Z,26.50
2019-02-25T05:18:54.425Z,26.50
2019-02-25T05:19:33.695Z,26.50
2019-02-25T05:20:12.438Z,26.50
2019-02-25T05:20:51.770Z,26.50
2019-02-25T05:21:30.970Z,26.50
2019-02-25T05:22:10.180Z,26.50
2019-02-25T05:22:49.426Z,26.50
2019-02-25T05:23:28.318Z,26.50
2019-02-25T05:24:06.951Z,26.40
2019-02-25T05:24:45.858Z,26.40
2019-02-25T05:25:25.275Z,26.50
2019-02-25T05:26:04.197Z,26.50
2019-02-25T05:26:43.455Z,26.50
2019-02-25T05:27:22.570Z,26.50
2019-02-25T05:28:01.274Z,26.50
2019-02-25T05:28:40.489Z,26.50
2019-02-25T05:29:19.144Z,26.50
2019-02-25T05:29:58.552Z,26.50
2019-02-25T05:30:37.238Z,26.50
2019-02-25T05:31:15.952Z,26.50
2019-02-25T05:31:54.971Z,26.50
2019-02-25T05:32:33.661Z,26.40
2019-02-25T05:33:12.192Z,26.40
2019-02-25T05:33:50.774Z,26.40
2019-02-25T05:34:29.453Z,26.40
2019-02-25T05:35:08.329Z,26.40
2019-02-25T05:35:47.009Z,26.40
2019-02-25T05:36:25.930Z,26.50
2019-02-25T05:37:05.025Z,26.50
2019-02-25T05:37:44.355Z,26.50
2019-02-25T05:38:23.773Z,26.50
2019-02-25T05:39:02.377Z,26.50
2019-02-25T05:39:42.360Z,26.50
2019-02-25T05:40:21.005Z,26.50
2019-02-25T05:41:46.182Z,26.50
2019-02-25T05:42:24.823Z,26.50
2019-02-25T05:43:03.643Z,26.50
2019-02-25T05:43:42.250Z,26.50
2019-02-25T05:44:21.334Z,26.50
2019-02-25T05:45:00.001Z,26.50
2019-02-25T05:45:41.484Z,26.50
2019-02-25T05:46:20.959Z,26.50
2019-02-25T05:47:00.419Z,26.50
2019-02-25T05:47:39.067Z,26.50
2019-02-25T05:48:18.448Z,26.60
2019-02-25T05:48:57.984Z,26.60
2019-02-25T05:49:36.664Z,26.60
2019-02-25T05:50:16.870Z,26.60
2019-02-25T05:50:55.556Z,26.70
2019-02-25T05:51:34.230Z,26.80
2019-02-25T05:52:13.693Z,26.80
2019-02-25T05:52:52.368Z,26.90
2019-02-25T05:53:30.938Z,26.90
2019-02-25T05:54:09.526Z,27.00
2019-02-25T05:54:48.219Z,27.00
2019-02-25T05:55:27.190Z,27.10
2019-02-25T05:56:06.232Z,27.10
2019-02-25T05:56:46.063Z,27.10
2019-02-25T05:57:26.285Z,27.10
2019-02-25T05:58:04.997Z,27.20
2019-02-25T05:58:43.716Z,27.20
2019-02-25T05:59:22.319Z,27.20
2019-02-25T06:00:01.000Z,27.30
2019-02-25T06:00:40.369Z,27.30
2019-02-25T06:01:19.055Z,27.30
2019-02-25T06:01:58.503Z,27.30
2019-02-25T06:02:37.500Z,27.40
2019-02-25T06:03:16.811Z,27.40
2019-02-25T06:03:55.539Z,27.40
2019-02-25T06:04:34.742Z,27.40
2019-02-25T06:05:13.397Z,27.40
2019-02-25T06:05:51.927Z,27.50
2019-02-25T06:06:30.633Z,27.50
2019-02-25T06:07:10.523Z,27.50
2019-02-25T06:07:49.848Z,27.50
2019-02-25T06:08:28.562Z,27.50
2019-02-25T06:09:08.018Z,27.50
2019-02-25T06:09:46.698Z,27.60
2019-02-25T06:10:25.909Z,27.60
2019-02-25T06:11:05.159Z,27.60
2019-02-25T06:11:44.621Z,27.60
2019-02-25T06:12:23.871Z,27.60
2019-02-25T06:13:03.152Z,27.60
2019-02-25T06:13:42.362Z,27.60
2019-02-25T06:14:21.027Z,27.70
2019-02-25T06:14:59.781Z,27.70
2019-02-25T06:15:38.490Z,27.70
2019-02-25T06:16:17.607Z,27.70
2019-02-25T06:16:56.766Z,27.80
2019-02-25T06:17:36.277Z,27.70
2019-02-25T06:18:15.066Z,27.70
2019-02-25T06:18:53.642Z,27.50
2019-02-25T06:19:32.505Z,27.80
2019-02-25T06:20:11.946Z,27.80
2019-02-25T06:20:51.222Z,27.80
2019-02-25T06:21:30.451Z,27.80
2019-02-25T06:22:09.182Z,27.80
2019-02-25T06:22:47.913Z,27.90
2019-02-25T06:23:26.628Z,27.90
2019-02-25T06:24:05.377Z,27.90
2019-02-25T06:24:44.019Z,27.90
2019-02-25T06:25:22.641Z,27.90
2019-02-25T06:26:01.337Z,28.00
2019-02-25T06:26:40.105Z,28.00
2019-02-25T06:27:19.375Z,28.00
2019-02-25T06:27:57.997Z,28.00
2019-02-25T06:28:37.158Z,28.00
2019-02-25T06:29:15.807Z,28.00
2019-02-25T06:29:54.455Z,28.00
2019-02-25T06:30:33.112Z,28.00
2019-02-25T06:31:11.810Z,28.10
2019-02-25T06:31:50.630Z,28.10
2019-02-25T06:32:29.484Z,28.10
2019-02-25T06:33:08.150Z,28.10
2019-02-25T06:33:47.632Z,28.10
2019-02-25T06:34:27.165Z,28.10
2019-02-25T06:35:06.360Z,28.10
2019-02-25T06:35:45.575Z,28.10
2019-02-25T06:36:24.374Z,28.10
2019-02-25T06:37:03.122Z,28.20
2019-02-25T06:37:43.084Z,28.20
2019-02-25T06:38:21.798Z,28.20
2019-02-25T06:39:00.458Z,28.20
2019-02-25T06:39:39.600Z,28.20
2019-02-25T06:40:19.177Z,28.20
2019-02-25T06:40:58.331Z,28.20
2019-02-25T06:41:37.775Z,28.30
2019-02-25T06:42:18.037Z,28.30
2019-02-25T06:42:57.407Z,28.30
2019-02-25T06:43:37.650Z,28.30
2019-02-25T06:44:16.384Z,28.30
2019-02-25T06:44:55.105Z,28.30
2019-02-25T06:45:34.516Z,28.30
2019-02-25T06:46:13.175Z,28.30
2019-02-25T06:46:51.875Z,28.40
2019-02-25T06:47:30.437Z,28.40
2019-02-25T06:48:10.758Z,28.40
2019-02-25T06:48:49.893Z,28.40
2019-02-25T06:49:29.097Z,28.40
2019-02-25T06:50:08.559Z,28.40
2019-02-25T06:50:48.599Z,28.40
2019-02-25T06:51:27.919Z,28.40
2019-02-25T06:52:07.168Z,28.50
2019-02-25T06:52:45.809Z,28.50
2019-02-25T06:53:24.991Z,28.50
2019-02-25T06:54:03.712Z,28.50
2019-02-25T06:54:42.410Z,28.50
2019-02-25T06:55:21.113Z,28.50
2019-02-25T06:55:59.837Z,28.50
2019-02-25T06:56:39.161Z,28.50
2019-02-25T06:57:18.353Z,28.60
2019-02-25T06:57:57.381Z,28.60
2019-02-25T06:58:36.111Z,28.60
2019-02-25T06:59:14.840Z,28.60
2019-02-25T06:59:53.618Z,28.60
2019-02-25T07:00:32.524Z,28.60
2019-02-25T07:01:11.388Z,28.60
2019-02-25T07:01:50.598Z,28.60
2019-02-25T07:02:29.331Z,28.60
2019-02-25T07:03:08.019Z,28.60
2019-02-25T07:03:48.798Z,28.60
2019-02-25T07:04:51.219Z,28.60
2019-02-25T07:06:00.032Z,28.70
2019-02-25T07:06:55.257Z,28.70
2019-02-25T07:08:10.941Z,28.70
2019-02-25T07:09:23.440Z,28.70
2019-02-25T07:10:22.209Z,28.70
2019-02-25T07:11:21.622Z,28.80
2019-02-25T07:12:20.763Z,28.80
2019-02-25T07:13:23.380Z,28.80
2019-02-25T07:14:19.077Z,28.80
2019-02-25T07:15:22.636Z,28.80
2019-02-25T07:16:26.954Z,28.80
2019-02-25T07:17:22.796Z,28.80
2019-02-25T07:18:19.701Z,28.90
2019-02-25T07:19:17.975Z,28.90
2019-02-25T07:20:14.902Z,28.90
2019-02-25T07:21:03.568Z,28.90
2019-02-25T07:22:10.526Z,28.90
2019-02-25T07:22:57.510Z,28.90
2019-02-25T07:23:45.961Z,28.90
2019-02-25T07:24:41.427Z,29.00
2019-02-25T07:25:47.158Z,29.00
2019-02-25T07:26:46.889Z,29.00
2019-02-25T07:27:39.760Z,29.00
2019-02-25T07:28:55.501Z,29.00
2019-02-25T07:29:58.271Z,29.00
2019-02-25T07:31:03.990Z,29.00
2019-02-25T07:32:03.703Z,29.00
2019-02-25T07:32:55.983Z,29.00
2019-02-25T07:34:01.044Z,29.10
2019-02-25T07:35:08.318Z,29.10
2019-02-25T07:36:03.850Z,29.10
2019-02-25T07:37:01.092Z,29.10
2019-02-25T07:38:13.572Z,29.10
2019-02-25T07:39:18.836Z,29.10
2019-02-25T07:40:15.847Z,29.10
2019-02-25T07:41:10.687Z,29.10
2019-02-25T07:42:22.533Z,29.20
2019-02-25T07:43:29.054Z,29.20
2019-02-25T07:44:44.011Z,29.20
2019-02-25T07:45:34.908Z,29.20
2019-02-25T07:46:26.305Z,29.20
2019-02-25T07:47:23.367Z,29.20
2019-02-25T07:48:31.643Z,29.30
2019-02-25T07:49:18.977Z,29.30
2019-02-25T07:50:24.929Z,29.30
2019-02-25T07:51:30.683Z,29.30
2019-02-25T07:52:27.494Z,29.30
2019-02-25T07:53:29.614Z,29.20
2019-02-25T07:54:26.482Z,29.30
2019-02-25T07:55:23.585Z,29.30
2019-02-25T07:56:21.562Z,29.30
2019-02-25T07:57:21.183Z,29.30
2019-02-25T07:58:17.223Z,29.30
2019-02-25T07:59:14.102Z,29.30
2019-02-25T08:00:11.230Z,29.40
2019-02-25T08:01:14.218Z,29.40
2019-02-25T08:02:02.895Z,29.40
2019-02-25T08:03:11.464Z,29.40
2019-02-25T08:03:59.579Z,29.40
2019-02-25T08:05:08.737Z,29.40
2019-02-25T08:06:08.292Z,29.40
2019-02-25T08:07:04.504Z,29.40
2019-02-25T08:08:00.467Z,29.40
2019-02-25T08:09:00.184Z,29.50
2019-02-25T08:10:06.220Z,29.50
2019-02-25T08:11:15.228Z,29.50
2019-02-25T08:12:14.348Z,29.50
2019-02-25T08:13:10.163Z,29.50
2019-02-25T08:14:09.093Z,29.50
2019-02-25T08:15:09.121Z,29.50
2019-02-25T08:16:06.658Z,29.50
2019-02-25T08:17:04.637Z,29.50
2019-02-25T08:18:00.933Z,29.60
2019-02-25T08:18:53.697Z,29.60
2019-02-25T08:20:02.695Z,29.60
2019-02-25T08:20:53.401Z,29.60
2019-02-25T08:21:51.140Z,29.60
2019-02-25T08:23:06.062Z,29.60
2019-02-25T08:24:09.265Z,29.60
2019-02-25T08:25:06.065Z,29.60
2019-02-25T08:26:06.312Z,29.60
2019-02-25T08:27:05.556Z,29.70
2019-02-25T08:28:18.617Z,29.70
2019-02-25T08:29:28.146Z,29.70
2019-02-25T08:30:28.256Z,29.70
2019-02-25T08:31:34.814Z,29.70
2019-02-25T08:32:31.769Z,29.70
2019-02-25T08:33:46.772Z,29.70
2019-02-25T08:34:42.412Z,29.70
2019-02-25T08:36:27.442Z,29.70
2019-02-25T08:37:40.233Z,29.80
2019-02-25T08:38:37.473Z,29.80
2019-02-25T08:39:41.315Z,29.80
2019-02-25T08:40:41.594Z,29.80
2019-02-25T08:41:27.674Z,29.80
2019-02-25T08:42:21.210Z,29.80
2019-02-25T08:43:10.069Z,29.80
2019-02-25T08:44:07.207Z,29.80
2019-02-25T08:45:26.502Z,29.80
2019-02-25T08:46:14.188Z,29.80
2019-02-25T08:47:09.503Z,29.90
2019-02-25T08:48:02.745Z,29.90
2019-02-25T08:48:46.582Z,29.90
2019-02-25T08:49:45.986Z,29.90
2019-02-25T08:50:25.432Z,29.90
2019-02-25T08:51:04.583Z,29.90
2019-02-25T08:51:43.233Z,29.90
2019-02-25T08:52:21.837Z,29.90
2019-02-25T08:53:00.487Z,29.90
2019-02-25T08:53:39.173Z,29.90
2019-02-25T08:54:17.869Z,29.90
2019-02-25T08:54:56.520Z,29.90
2019-02-25T08:55:35.193Z,29.90
2019-02-25T08:56:14.944Z,29.90
2019-02-25T08:56:53.615Z,29.90
2019-02-25T08:57:32.324Z,29.90
2019-02-25T08:58:11.355Z,29.90
2019-02-25T08:58:50.662Z,29.90
2019-02-25T08:59:29.527Z,29.90
2019-02-25T09:00:09.450Z,29.90
2019-02-25T09:00:48.743Z,29.90
2019-02-25T09:01:27.503Z,29.90
2019-02-25T09:02:06.189Z,30.00
2019-02-25T09:02:45.404Z,30.00
2019-02-25T09:03:24.162Z,30.00
2019-02-25T09:04:03.042Z,30.00
2019-02-25T09:04:42.030Z,30.00